createdAt,value
2022-11-16T00:01:48.945Z,76.13
2022-11-16T00:04:32.092Z,70.87
2022-11-16T00:07:15.258Z,72.03
2022-11-16T00:09:59.765Z,69.23
2022-11-16T00:12:42.772Z,71.30
2022-11-16T00:15:26.859Z,67.13
2022-11-16T00:18:09.886Z,65.57
2022-11-16T00:20:52.987Z,63.80
2022-11-16T00:23:38.442Z,58.27
2022-11-16T00:26:23.171Z,56.97
2022-11-16T00:29:06.194Z,57.13
2022-11-16T00:31:50.124Z,62.13
2022-11-16T00:34:33.179Z,61.40
2022-11-16T00:37:16.196Z,62.43
2022-11-16T00:39:59.213Z,64.40
2022-11-16T00:42:43.571Z,63.73
2022-11-16T00:45:26.556Z,65.23
2022-11-16T00:48:09.607Z,60.97
2022-11-16T00:50:52.760Z,63.50
2022-11-16T00:53:36.692Z,60.70
2022-11-16T00:56:19.708Z,64.07
2022-11-16T00:59:04.166Z,63.63
2022-11-16T01:01:47.361Z,61.27
2022-11-16T01:04:30.506Z,62.97
2022-11-16T01:07:13.566Z,63.03
2022-11-16T01:09:56.642Z,63.33
2022-11-16T01:12:39.770Z,62.93
2022-11-16T01:15:26.995Z,63.30
2022-11-16T01:18:09.984Z,61.30
2022-11-16T01:20:54.374Z,60.63
2022-11-16T01:23:37.402Z,63.70
2022-11-16T01:26:20.653Z,60.73
2022-11-16T01:29:03.731Z,60.63
2022-11-16T01:31:48.178Z,64.53
2022-11-16T01:34:31.291Z,61.30
2022-11-16T01:37:14.304Z,64.07
2022-11-16T01:39:57.446Z,62.80
2022-11-16T01:42:40.701Z,62.30
2022-11-16T01:45:32.498Z,63.10
2022-11-16T01:48:23.314Z,59.53
2022-11-16T01:51:06.546Z,58.80
2022-11-16T01:53:49.674Z,62.37
2022-11-16T01:56:34.042Z,60.83
2022-11-16T01:59:18.665Z,59.20
2022-11-16T02:02:02.352Z,60.67
2022-11-16T02:04:48.874Z,57.43
2022-11-16T02:08:01.682Z,61.10
2022-11-16T02:10:59.867Z,58.37
2022-11-16T02:13:51.656Z,63.57
2022-11-16T02:16:44.421Z,64.10
2022-11-16T02:19:52.430Z,65.07
2022-11-16T02:22:49.537Z,61.23
2022-11-16T02:25:39.395Z,65.10
2022-11-16T02:28:34.425Z,63.20
2022-11-16T02:31:25.860Z,61.43
2022-11-16T02:34:12.276Z,64.37
2022-11-16T02:36:58.236Z,60.17
2022-11-16T02:39:43.095Z,59.40
2022-11-16T02:42:32.330Z,57.27
2022-11-16T02:45:21.373Z,57.80
2022-11-16T02:48:09.775Z,57.33
2022-11-16T02:50:54.540Z,56.50
2022-11-16T02:53:42.824Z,57.20
2022-11-16T02:56:26.729Z,56.23
2022-11-16T02:59:16.519Z,56.83
2022-11-16T03:02:14.958Z,58.47
2022-11-16T03:05:05.788Z,57.67
2022-11-16T03:07:53.430Z,58.93
2022-11-16T03:10:57.789Z,57.23
2022-11-16T03:13:42.742Z,58.10
2022-11-16T03:16:29.674Z,59.43
2022-11-16T03:19:15.772Z,54.10
2022-11-16T03:22:05.024Z,55.60
2022-11-16T03:24:48.891Z,54.10
2022-11-16T03:27:40.320Z,54.50
2022-11-16T03:30:25.658Z,54.23
2022-11-16T03:33:15.565Z,53.73
2022-11-16T03:36:04.910Z,54.23
2022-11-16T03:38:52.874Z,53.80
2022-11-16T03:41:38.726Z,53.47
2022-11-16T03:44:22.815Z,52.77
2022-11-16T03:47:06.011Z,52.77
2022-11-16T03:49:49.558Z,47.70
2022-11-16T03:52:32.797Z,49.03
2022-11-16T03:55:17.382Z,49.40
2022-11-16T03:58:00.400Z,49.00
2022-11-16T04:00:43.475Z,47.43
2022-11-16T04:03:26.546Z,48.50
2022-11-16T04:06:27.777Z,47.90
2022-11-16T04:09:28.332Z,45.57
2022-11-16T04:12:30.080Z,44.57
2022-11-16T04:15:30.576Z,46.40
2022-11-16T04:18:31.239Z,47.60
2022-11-16T04:21:37.488Z,48.30
2022-11-16T04:24:24.245Z,53.13
2022-11-16T04:27:27.847Z,47.23
2022-11-16T04:30:13.556Z,50.83
2022-11-16T04:33:13.682Z,50.33
2022-11-16T04:36:17.936Z,51.03
2022-11-16T04:39:03.676Z,51.47
2022-11-16T04:42:04.023Z,49.20
2022-11-16T04:45:04.850Z,50.27
2022-11-16T04:47:51.317Z,48.90
2022-11-16T04:50:35.011Z,48.80
2022-11-16T04:53:18.075Z,50.83
2022-11-16T04:56:01.224Z,49.30
2022-11-16T04:58:44.297Z,48.63
2022-11-16T05:01:41.196Z,47.53
2022-11-16T05:04:25.730Z,49.80
2022-11-16T05:07:11.259Z,48.23
2022-11-16T05:09:54.539Z,48.13
2022-11-16T05:12:37.655Z,48.33
2022-11-16T05:15:20.726Z,45.77
2022-11-16T05:18:03.768Z,43.13
2022-11-16T05:21:02.433Z,43.60
2022-11-16T05:24:02.570Z,43.40
2022-11-16T05:26:45.761Z,56.92
2022-11-16T05:29:28.882Z,47.90
2022-11-16T05:32:13.493Z,45.33
2022-11-16T05:34:56.544Z,42.57
2022-11-16T05:37:41.198Z,44.30
2022-11-16T05:40:24.206Z,42.73
2022-11-16T05:43:07.169Z,41.60
2022-11-16T05:45:50.178Z,48.83
2022-11-16T05:48:33.589Z,46.27
2022-11-16T05:51:16.813Z,47.87
2022-11-16T05:54:01.356Z,47.60
2022-11-16T05:56:44.504Z,47.00
2022-11-16T05:59:27.864Z,48.80
2022-11-16T06:02:10.861Z,45.63
2022-11-16T06:04:54.042Z,46.27
2022-11-16T06:07:37.232Z,45.53
2022-11-16T06:10:21.729Z,43.80
2022-11-16T06:13:04.851Z,43.03
2022-11-16T06:15:53.881Z,41.87
2022-11-16T06:18:38.852Z,41.50
2022-11-16T06:21:21.849Z,42.37
2022-11-16T06:24:09.050Z,41.63
2022-11-16T06:26:53.669Z,44.33
2022-11-16T06:29:36.721Z,42.60
2022-11-16T06:32:19.734Z,41.17
2022-11-16T06:35:02.787Z,46.23
2022-11-16T06:37:45.818Z,43.70
2022-11-16T06:40:28.874Z,44.37
2022-11-16T06:43:13.404Z,44.20
2022-11-16T06:45:58.499Z,46.67
2022-11-16T06:48:41.594Z,47.23
2022-11-16T06:51:24.574Z,49.33
2022-11-16T06:54:07.765Z,47.83
2022-11-16T06:56:50.883Z,47.40
2022-11-16T06:59:35.566Z,49.83
2022-11-16T07:02:21.397Z,49.50
2022-11-16T07:05:04.515Z,52.77
2022-11-16T07:07:47.593Z,50.33
2022-11-16T07:10:30.653Z,50.27
2022-11-16T07:13:13.981Z,49.17
2022-11-16T07:16:03.864Z,49.50
2022-11-16T07:18:46.884Z,48.37
2022-11-16T07:21:30.222Z,47.70
2022-11-16T07:24:13.268Z,47.43
2022-11-16T07:26:56.255Z,50.20
2022-11-16T07:29:39.308Z,47.00
2022-11-16T07:32:23.765Z,47.87
2022-11-16T07:35:07.782Z,48.10
2022-11-16T07:37:50.819Z,49.60
2022-11-16T07:40:33.837Z,51.77
2022-11-16T07:43:16.945Z,50.73
2022-11-16T07:46:30.327Z,48.13
2022-11-16T07:49:11.328Z,46.57
2022-11-16T07:51:54.821Z,45.27
2022-11-16T07:54:38.057Z,44.30
2022-11-16T07:57:21.097Z,43.47
2022-11-16T08:00:04.962Z,45.37
2022-11-16T08:02:47.949Z,43.10
2022-11-16T08:05:32.453Z,40.97
2022-11-16T08:08:15.489Z,42.03
2022-11-16T08:11:01.770Z,42.27
2022-11-16T08:13:45.088Z,44.03
2022-11-16T08:16:28.217Z,42.13
2022-11-16T08:19:11.517Z,41.73
2022-11-16T08:21:56.038Z,44.50
2022-11-16T08:24:39.089Z,44.57
2022-11-16T08:27:22.138Z,43.73
2022-11-16T08:30:09.898Z,45.57
2022-11-16T08:32:52.931Z,47.13
2022-11-16T08:35:36.388Z,45.83
2022-11-16T08:38:20.838Z,47.63
2022-11-16T08:41:03.934Z,45.23
2022-11-16T08:43:50.586Z,46.13
2022-11-16T08:46:33.786Z,45.97
2022-11-16T08:49:17.003Z,45.57
2022-11-16T08:52:00.220Z,49.40
2022-11-16T08:54:44.655Z,48.00
2022-11-16T08:57:27.725Z,49.07
2022-11-16T09:00:12.428Z,48.43
2022-11-16T09:02:55.478Z,46.57
2022-11-16T09:05:39.728Z,47.53
2022-11-16T09:08:22.773Z,45.10
2022-11-16T09:11:08.408Z,46.63
2022-11-16T09:13:53.878Z,47.67
2022-11-16T09:16:36.980Z,47.87
2022-11-16T09:19:20.623Z,47.33
2022-11-16T09:22:03.741Z,48.67
2022-11-16T09:24:46.753Z,48.90
2022-11-16T09:27:31.306Z,49.37
2022-11-16T09:30:14.953Z,52.83
2022-11-16T09:33:00.407Z,50.33
2022-11-16T09:35:43.600Z,49.00
2022-11-16T09:38:40.212Z,49.50
2022-11-16T09:41:53.238Z,48.50
2022-11-16T09:44:54.367Z,49.03
2022-11-16T09:47:49.119Z,46.87
2022-11-16T09:50:46.000Z,48.07
2022-11-16T09:53:35.379Z,49.60
2022-11-16T09:56:22.923Z,45.43
2022-11-16T09:59:17.946Z,41.87
2022-11-16T10:02:17.104Z,41.67
2022-11-16T10:05:05.050Z,41.27
2022-11-16T10:07:52.003Z,43.37
2022-11-16T10:10:38.966Z,40.47
2022-11-16T10:13:35.638Z,39.13
2022-11-16T10:16:24.033Z,37.43
2022-11-16T10:19:15.935Z,37.30
2022-11-16T10:22:08.353Z,32.60
2022-11-16T10:24:58.873Z,33.93
2022-11-16T10:28:03.127Z,33.03
2022-11-16T10:30:55.481Z,33.30
2022-11-16T10:33:41.112Z,33.40
2022-11-16T10:36:30.158Z,33.80
2022-11-16T10:39:18.213Z,35.37
2022-11-16T10:42:07.747Z,33.97
2022-11-16T10:44:58.849Z,33.10
2022-11-16T10:47:47.147Z,33.57
2022-11-16T10:50:38.543Z,32.97
2022-11-16T10:53:30.175Z,32.43
2022-11-16T10:56:19.010Z,32.00
2022-11-16T10:59:04.497Z,30.93
2022-11-16T11:01:51.090Z,32.23
2022-11-16T11:04:34.223Z,33.80
2022-11-16T11:07:29.764Z,32.57
2022-11-16T11:10:29.684Z,30.97
2022-11-16T11:13:27.748Z,32.83
2022-11-16T11:16:16.939Z,34.20
2022-11-16T11:19:18.797Z,34.90
2022-11-16T11:22:02.347Z,33.77
2022-11-16T11:24:49.640Z,35.60
2022-11-16T11:27:36.766Z,35.67
2022-11-16T11:30:22.301Z,37.73
2022-11-16T11:33:12.637Z,39.00
2022-11-16T11:36:06.863Z,39.30
2022-11-16T11:38:59.422Z,40.60
2022-11-16T11:41:47.085Z,36.30
2022-11-16T11:44:56.839Z,36.57
2022-11-16T11:47:58.983Z,37.53
2022-11-16T11:50:49.171Z,36.43
2022-11-16T11:53:48.236Z,35.90
2022-11-16T11:56:34.211Z,36.97
2022-11-16T11:59:21.644Z,36.53
2022-11-16T12:02:21.975Z,34.27
2022-11-16T12:05:42.933Z,36.00
2022-11-16T12:08:40.156Z,36.47
2022-11-16T12:11:32.345Z,33.00
2022-11-16T12:14:30.239Z,32.60
2022-11-16T12:17:20.733Z,32.57
2022-11-16T12:20:25.987Z,30.00
2022-11-16T12:23:23.119Z,32.70
2022-11-16T12:26:16.615Z,32.43
2022-11-16T12:29:14.303Z,29.90
2022-11-16T12:32:18.512Z,30.13
2022-11-16T12:35:27.570Z,31.40
2022-11-16T12:38:27.612Z,40.10
2022-11-16T12:41:38.797Z,31.13
2022-11-16T12:44:33.584Z,73.17
2022-11-16T12:47:29.140Z,32.33
2022-11-16T12:50:34.443Z,30.43
2022-11-16T12:53:52.785Z,31.97
2022-11-16T12:56:49.078Z,30.47
2022-11-16T12:59:47.738Z,31.17
2022-11-16T13:02:54.464Z,31.27
2022-11-16T13:05:53.754Z,32.43
2022-11-16T13:08:48.113Z,32.80
2022-11-16T13:11:35.135Z,35.33
2022-11-16T13:14:21.176Z,34.13
2022-11-16T13:17:05.836Z,33.73
2022-11-16T13:20:16.925Z,35.33
2022-11-16T13:23:04.169Z,32.60
2022-11-16T13:25:52.185Z,34.67
2022-11-16T13:28:41.080Z,33.20
2022-11-16T13:31:32.818Z,34.87
2022-11-16T13:34:21.637Z,32.50
2022-11-16T13:37:45.695Z,30.53
2022-11-16T13:40:31.224Z,30.33
2022-11-16T13:43:19.863Z,30.90
2022-11-16T13:46:02.985Z,30.77
2022-11-16T13:48:47.535Z,32.17
2022-11-16T13:51:30.655Z,30.10
2022-11-16T13:54:44.580Z,31.80
2022-11-16T13:57:24.392Z,32.50
2022-11-16T14:00:20.852Z,33.73
2022-11-16T14:03:27.802Z,31.83
2022-11-16T14:06:48.113Z,30.87
2022-11-16T14:09:45.019Z,31.87
2022-11-16T14:13:00.940Z,32.57
2022-11-16T14:15:44.004Z,32.57
2022-11-16T14:18:38.232Z,32.17
2022-11-16T14:21:39.313Z,33.20
2022-11-16T14:24:30.263Z,31.53
2022-11-16T14:27:30.298Z,32.07
2022-11-16T14:30:20.221Z,31.80
2022-11-16T14:33:03.724Z,32.70
2022-11-16T14:35:53.842Z,32.77
2022-11-16T14:38:39.557Z,33.30
2022-11-16T14:41:25.888Z,34.80
2022-11-16T14:44:11.871Z,34.57
2022-11-16T14:46:55.214Z,36.73
2022-11-16T14:49:48.266Z,36.37
2022-11-16T14:52:37.771Z,35.47
2022-11-16T14:55:22.886Z,37.23
2022-11-16T14:58:10.285Z,35.83
2022-11-16T15:00:58.076Z,36.53
2022-11-16T15:03:49.689Z,37.13
2022-11-16T15:06:40.215Z,36.33
2022-11-16T15:09:28.381Z,39.27
2022-11-16T15:12:33.792Z,39.30
2022-11-16T15:15:18.827Z,38.80
2022-11-16T15:18:14.953Z,41.57
2022-11-16T15:20:57.970Z,39.97
2022-11-16T15:24:02.131Z,41.00
2022-11-16T15:26:51.756Z,39.60
2022-11-16T15:29:34.825Z,42.87
2022-11-16T15:32:18.973Z,46.33
2022-11-16T15:35:05.441Z,45.77
2022-11-16T15:37:48.802Z,45.50
2022-11-16T15:40:32.081Z,46.17
2022-11-16T15:43:16.779Z,45.07
2022-11-16T15:46:00.980Z,43.73
2022-11-16T15:48:45.115Z,45.13
2022-11-16T15:51:32.335Z,44.57
2022-11-16T15:54:22.391Z,43.43
2022-11-16T15:57:10.303Z,42.43
2022-11-16T15:59:56.381Z,42.33
2022-11-16T16:02:39.494Z,43.30
2022-11-16T16:05:34.788Z,42.17
2022-11-16T16:08:35.351Z,42.03
2022-11-16T16:11:29.112Z,40.93
2022-11-16T16:14:22.387Z,42.70
2022-11-16T16:17:05.563Z,43.40
2022-11-16T16:19:56.139Z,43.77
2022-11-16T16:22:39.288Z,43.87
2022-11-16T16:25:32.414Z,44.93
2022-11-16T16:28:15.410Z,43.77
2022-11-16T16:30:58.438Z,44.27
2022-11-16T16:33:42.328Z,44.63
2022-11-16T16:36:25.339Z,41.77
2022-11-16T16:39:08.585Z,43.20
2022-11-16T16:41:53.018Z,44.77
2022-11-16T16:44:36.297Z,46.00
2022-11-16T16:47:21.331Z,44.03
2022-11-16T16:50:06.312Z,45.67
2022-11-16T16:52:49.717Z,45.93
2022-11-16T16:55:37.252Z,45.67
2022-11-16T16:58:22.316Z,46.13
2022-11-16T17:01:06.762Z,44.60
2022-11-16T17:03:50.603Z,44.60
2022-11-16T17:06:34.144Z,45.77
2022-11-16T17:09:17.576Z,48.13
2022-11-16T17:12:00.662Z,48.07
2022-11-16T17:14:52.355Z,46.47
2022-11-16T17:17:37.324Z,44.07
2022-11-16T17:20:20.452Z,49.07
2022-11-16T17:23:03.572Z,48.20
2022-11-16T17:25:46.713Z,44.97
2022-11-16T17:28:29.978Z,46.77
2022-11-16T17:31:15.089Z,47.17
2022-11-16T17:33:58.663Z,50.70
2022-11-16T17:36:41.668Z,50.00
2022-11-16T17:39:25.222Z,50.07
2022-11-16T17:42:09.415Z,53.50
2022-11-16T17:44:54.261Z,49.87
2022-11-16T17:47:39.228Z,50.67
2022-11-16T17:50:22.349Z,60.57
2022-11-16T17:53:05.736Z,63.00
2022-11-16T17:55:49.061Z,51.87
2022-11-16T17:58:32.903Z,73.80
2022-11-16T18:01:16.084Z,80.40
2022-11-16T18:04:01.103Z,73.70
2022-11-16T18:06:45.049Z,73.70
2022-11-16T18:09:28.392Z,76.60
2022-11-16T18:12:11.478Z,76.47
2022-11-16T18:15:21.296Z,76.17
2022-11-16T18:17:57.943Z,71.37
2022-11-16T18:20:42.507Z,67.37
2022-11-16T18:23:25.506Z,64.30
2022-11-16T18:26:09.996Z,63.40
2022-11-16T18:28:53.945Z,59.47
2022-11-16T18:31:37.043Z,60.67
2022-11-16T18:34:20.425Z,58.13
2022-11-16T18:37:04.945Z,60.00
2022-11-16T18:39:48.039Z,61.83
2022-11-16T18:42:31.120Z,57.63
2022-11-16T18:45:14.156Z,59.23
2022-11-16T18:47:57.244Z,56.57
2022-11-16T18:50:40.280Z,77.17
2022-11-16T18:53:25.076Z,68.83
2022-11-16T18:56:09.024Z,63.50
2022-11-16T18:58:53.109Z,60.13
2022-11-16T19:01:36.524Z,61.20
2022-11-16T19:04:19.586Z,61.77
2022-11-16T19:07:02.745Z,55.27
2022-11-16T19:09:47.390Z,55.70
2022-11-16T19:12:30.722Z,53.90
2022-11-16T19:15:14.258Z,55.57
2022-11-16T19:18:19.883Z,53.00
2022-11-16T19:21:07.715Z,54.13
2022-11-16T19:23:52.167Z,53.43
2022-11-16T19:26:36.613Z,54.10
2022-11-16T19:29:19.659Z,54.33
2022-11-16T19:32:02.788Z,55.77
2022-11-16T19:34:45.786Z,54.53
2022-11-16T19:37:29.258Z,56.00
2022-11-16T19:40:13.478Z,56.33
2022-11-16T19:42:58.410Z,56.20
2022-11-16T19:45:42.479Z,57.63
2022-11-16T19:48:25.510Z,55.53
2022-11-16T19:51:09.932Z,54.90
2022-11-16T19:53:53.245Z,54.93
2022-11-16T19:56:36.290Z,55.50
2022-11-16T19:59:20.980Z,57.07
2022-11-16T20:02:04.239Z,54.70
2022-11-16T20:04:47.438Z,56.17
2022-11-16T20:07:30.651Z,53.93
2022-11-16T20:10:13.789Z,53.13
2022-11-16T20:12:56.923Z,54.67
2022-11-16T20:15:41.397Z,55.53
2022-11-16T20:18:24.547Z,55.27
2022-11-16T20:21:08.717Z,54.90
2022-11-16T20:23:52.701Z,58.70
2022-11-16T20:26:37.625Z,56.40
2022-11-16T20:29:21.047Z,54.10
2022-11-16T20:32:05.624Z,54.87
2022-11-16T20:34:48.652Z,55.23
2022-11-16T20:37:31.650Z,56.27
2022-11-16T20:40:15.631Z,52.73
2022-11-16T20:43:00.255Z,52.37
2022-11-16T20:45:43.354Z,52.77
2022-11-16T20:48:27.780Z,58.17
2022-11-16T20:51:12.774Z,58.67
2022-11-16T20:53:56.223Z,58.53
2022-11-16T20:56:39.296Z,55.40
2022-11-16T20:59:22.289Z,58.00
2022-11-16T21:02:05.405Z,57.13
2022-11-16T21:04:49.836Z,49.80
2022-11-16T21:07:32.958Z,47.70
2022-11-16T21:10:21.936Z,52.27
2022-11-16T21:13:22.552Z,50.57
2022-11-16T21:16:08.205Z,50.90
2022-11-16T21:18:51.283Z,51.17
2022-11-16T21:21:35.923Z,50.73
2022-11-16T21:24:18.924Z,52.20
2022-11-16T21:27:01.914Z,51.70
2022-11-16T21:29:44.966Z,51.17
2022-11-16T21:32:28.022Z,53.10
2022-11-16T21:35:11.023Z,46.73
2022-11-16T21:37:55.400Z,46.87
2022-11-16T21:40:38.961Z,47.50
2022-11-16T21:43:22.182Z,44.47
2022-11-16T21:46:06.742Z,44.47
2022-11-16T21:48:51.316Z,43.87
2022-11-16T21:51:34.941Z,45.97
2022-11-16T21:54:19.481Z,43.20
2022-11-16T21:57:02.709Z,54.00
2022-11-16T21:59:45.726Z,49.23
2022-11-16T22:02:28.740Z,49.97
2022-11-16T22:05:29.203Z,47.40
2022-11-16T22:08:12.780Z,49.00
2022-11-16T22:10:57.220Z,53.00
2022-11-16T22:13:40.690Z,52.50
2022-11-16T22:16:24.381Z,55.27
2022-11-16T22:19:07.408Z,48.97
2022-11-16T22:21:50.392Z,49.07
2022-11-16T22:24:33.494Z,50.43
2022-11-16T22:27:18.905Z,46.17
2022-11-16T22:30:01.873Z,41.83
2022-11-16T22:32:46.028Z,41.53
2022-11-16T22:35:29.068Z,41.33
2022-11-16T22:38:12.068Z,45.90
2022-11-16T22:40:56.984Z,47.07
2022-11-16T22:43:41.624Z,47.93
2022-11-16T22:46:24.828Z,48.20
2022-11-16T22:49:07.918Z,47.60
2022-11-16T22:51:51.011Z,46.40
2022-11-16T22:54:34.703Z,49.13
2022-11-16T22:57:17.693Z,50.20
2022-11-16T23:00:02.143Z,53.80
2022-11-16T23:02:45.293Z,54.70
2022-11-16T23:05:28.361Z,52.73
2022-11-16T23:08:11.344Z,51.27
2022-11-16T23:11:18.723Z,49.53
2022-11-16T23:14:20.146Z,48.07
2022-11-16T23:17:05.092Z,48.17
2022-11-16T23:20:05.750Z,49.17
2022-11-16T23:23:06.104Z,49.10
2022-11-16T23:26:06.579Z,46.63
2022-11-16T23:28:49.592Z,44.90
2022-11-16T23:31:32.626Z,45.83
2022-11-16T23:34:16.993Z,46.73
2022-11-16T23:37:03.486Z,43.57
2022-11-16T23:39:46.482Z,44.17
2022-11-16T23:42:47.243Z,43.87
2022-11-16T23:45:30.256Z,42.43
2022-11-16T23:48:16.041Z,39.57
2022-11-16T23:51:00.498Z,38.13
2022-11-16T23:53:43.482Z,36.97
2022-11-16T23:56:26.518Z,37.97
2022-11-16T23:59:09.580Z,35.87
